createdAt,value
2018-03-16T00:00:47.660Z,66.90
2018-03-16T00:03:15.233Z,67.00
2018-03-16T00:05:42.792Z,67.00
2018-03-16T00:08:10.352Z,66.90
2018-03-16T00:10:37.969Z,67.10
2018-03-16T00:13:05.580Z,67.20
2018-03-16T00:15:33.235Z,67.20
2018-03-16T00:18:00.862Z,67.30
2018-03-16T00:20:28.556Z,67.20
2018-03-16T00:22:56.158Z,67.30
2018-03-16T00:25:23.722Z,67.30
2018-03-16T00:27:51.328Z,67.30
2018-03-16T00:30:18.888Z,67.40
2018-03-16T00:32:46.453Z,67.30
2018-03-16T00:35:14.025Z,67.40
2018-03-16T00:37:41.584Z,67.40
2018-03-16T00:40:09.164Z,67.50
2018-03-16T00:42:37.120Z,67.60
2018-03-16T00:45:04.716Z,67.60
2018-03-16T00:47:32.271Z,67.60
2018-03-16T00:49:59.876Z,67.70
2018-03-16T00:52:27.531Z,67.70
2018-03-16T00:54:55.200Z,67.80
2018-03-16T00:57:22.772Z,67.70
2018-03-16T00:59:50.728Z,67.90
2018-03-16T01:02:18.397Z,67.90
2018-03-16T01:04:45.956Z,67.90
2018-03-16T01:07:13.638Z,67.80
2018-03-16T01:09:41.293Z,67.90
2018-03-16T01:12:09.288Z,68.00
2018-03-16T01:14:36.918Z,68.00
2018-03-16T01:17:04.568Z,68.00
2018-03-16T01:19:32.140Z,68.10
2018-03-16T01:22:00.097Z,68.10
2018-03-16T01:24:27.681Z,68.10
2018-03-16T01:26:55.236Z,68.10
2018-03-16T01:29:22.798Z,68.10
2018-03-16T01:31:50.392Z,68.10
2018-03-16T01:34:17.957Z,68.10
2018-03-16T01:36:45.543Z,68.20
2018-03-16T01:39:13.232Z,68.20
2018-03-16T01:41:40.790Z,68.30
2018-03-16T01:44:08.344Z,68.20
2018-03-16T01:46:35.935Z,68.20
2018-03-16T01:49:03.502Z,68.20
2018-03-16T01:51:31.062Z,68.20
2018-03-16T01:53:58.620Z,68.30
2018-03-16T01:56:26.178Z,68.30
2018-03-16T01:58:53.732Z,68.30
2018-03-16T02:01:21.282Z,68.30
2018-03-16T02:03:48.933Z,68.40
2018-03-16T02:06:16.495Z,68.40
2018-03-16T02:08:44.063Z,68.30
2018-03-16T02:11:11.684Z,68.30
2018-03-16T02:13:39.372Z,68.40
2018-03-16T02:16:06.957Z,68.40
2018-03-16T02:18:34.517Z,68.40
2018-03-16T02:21:02.073Z,68.40
2018-03-16T02:23:29.707Z,68.40
2018-03-16T02:25:57.400Z,68.40
2018-03-16T02:28:24.954Z,68.50
2018-03-16T02:30:52.599Z,68.50
2018-03-16T02:33:20.242Z,68.50
2018-03-16T02:35:47.900Z,68.60
2018-03-16T02:38:15.425Z,68.60
2018-03-16T02:40:44.749Z,68.60
2018-03-16T02:43:12.446Z,68.60
2018-03-16T02:45:40.096Z,68.60
2018-03-16T02:48:07.784Z,68.70
2018-03-16T02:50:35.345Z,68.70
2018-03-16T02:53:02.913Z,68.70
2018-03-16T02:55:30.538Z,68.70
2018-03-16T02:57:58.120Z,68.70
2018-03-16T03:00:39.960Z,68.70
2018-03-16T03:03:07.936Z,68.70
2018-03-16T03:05:35.533Z,68.70
2018-03-16T03:08:03.111Z,68.80
2018-03-16T03:10:30.760Z,68.70
2018-03-16T03:12:58.404Z,68.80
2018-03-16T03:15:26.064Z,68.80
2018-03-16T03:17:53.625Z,68.80
2018-03-16T03:20:21.184Z,68.80
2018-03-16T03:22:48.840Z,68.80
2018-03-16T03:25:16.401Z,68.80
2018-03-16T03:27:44.158Z,68.80
2018-03-16T03:30:11.834Z,68.90
2018-03-16T03:32:39.412Z,68.80
2018-03-16T03:35:07.024Z,68.90
2018-03-16T03:37:34.599Z,68.90
2018-03-16T03:40:02.192Z,68.90
2018-03-16T03:42:29.751Z,68.90
2018-03-16T03:44:57.408Z,68.90
2018-03-16T03:47:25.068Z,68.90
2018-03-16T03:49:52.636Z,68.90
2018-03-16T03:52:20.272Z,68.90
2018-03-16T03:54:47.933Z,68.90
2018-03-16T03:57:15.488Z,68.90
2018-03-16T03:59:43.053Z,68.90
2018-03-16T04:02:10.612Z,68.90
2018-03-16T04:04:38.168Z,68.90
2018-03-16T04:07:05.750Z,68.90
2018-03-16T04:09:33.309Z,68.90
2018-03-16T04:12:00.864Z,68.90
2018-03-16T04:14:28.434Z,69.00
2018-03-16T04:16:56.144Z,68.90
2018-03-16T04:19:23.712Z,69.00
2018-03-16T04:21:51.313Z,69.00
2018-03-16T04:24:18.877Z,69.00
2018-03-16T04:26:46.480Z,69.00
2018-03-16T04:29:14.081Z,69.00
2018-03-16T04:31:41.700Z,69.00
2018-03-16T04:34:09.308Z,69.00
2018-03-16T04:36:36.882Z,69.00
2018-03-16T04:39:04.858Z,69.00
2018-03-16T04:41:32.444Z,69.00
2018-03-16T04:44:00.089Z,69.00
2018-03-16T04:46:27.716Z,69.00
2018-03-16T04:48:55.377Z,69.00
2018-03-16T04:51:23.040Z,69.00
2018-03-16T04:53:51.136Z,69.20
2018-03-16T04:56:18.772Z,69.20
2018-03-16T04:58:46.352Z,69.10
2018-03-16T05:01:13.911Z,69.20
2018-03-16T05:03:41.487Z,69.20
2018-03-16T05:06:09.113Z,69.20
2018-03-16T05:08:36.699Z,69.20
2018-03-16T05:11:04.274Z,69.20
2018-03-16T05:13:31.834Z,69.20
2018-03-16T05:15:59.397Z,69.20
2018-03-16T05:18:26.956Z,69.20
2018-03-16T05:20:54.602Z,69.20
2018-03-16T05:23:22.236Z,69.20
2018-03-16T05:25:50.314Z,69.20
2018-03-16T05:28:17.976Z,69.20
2018-03-16T05:30:45.562Z,69.30
2018-03-16T05:33:13.198Z,69.30
2018-03-16T05:35:40.781Z,69.30
2018-03-16T05:38:08.412Z,69.30
2018-03-16T05:40:36.510Z,69.20
2018-03-16T05:43:04.069Z,69.20
2018-03-16T05:45:31.636Z,69.20
2018-03-16T05:47:59.195Z,69.30
2018-03-16T05:50:26.796Z,69.30
2018-03-16T05:52:54.358Z,69.20
2018-03-16T05:55:22.361Z,69.20
2018-03-16T05:57:49.921Z,69.20
2018-03-16T06:00:17.499Z,69.30
2018-03-16T06:02:45.128Z,69.20
2018-03-16T06:05:12.687Z,69.20
2018-03-16T06:07:40.365Z,69.20
2018-03-16T06:10:07.948Z,69.30
2018-03-16T06:12:35.532Z,69.20
2018-03-16T06:15:03.147Z,69.30
2018-03-16T06:17:30.820Z,69.20
2018-03-16T06:19:58.373Z,69.20
2018-03-16T06:22:25.944Z,69.20
2018-03-16T06:24:53.522Z,69.30
2018-03-16T06:27:21.152Z,69.30
2018-03-16T06:29:48.810Z,69.20
2018-03-16T06:32:27.610Z,69.30
2018-03-16T06:34:55.160Z,69.30
2018-03-16T06:37:22.745Z,69.30
2018-03-16T06:39:50.416Z,69.30
2018-03-16T06:42:18.126Z,69.30
2018-03-16T06:44:46.151Z,69.30
2018-03-16T06:47:14.122Z,69.30
2018-03-16T06:49:44.612Z,69.30
2018-03-16T06:52:12.225Z,69.30
2018-03-16T06:54:39.783Z,69.30
2018-03-16T06:57:07.337Z,69.30
2018-03-16T06:59:34.897Z,69.30
2018-03-16T07:02:02.462Z,69.30
2018-03-16T07:04:30.028Z,69.30
2018-03-16T07:06:57.652Z,69.30
2018-03-16T07:09:25.368Z,69.30
2018-03-16T07:11:53.399Z,69.30
2018-03-16T07:14:20.985Z,69.30
2018-03-16T07:16:48.946Z,69.30
2018-03-16T07:19:16.532Z,69.30
2018-03-16T07:21:44.091Z,69.30
2018-03-16T07:24:12.061Z,69.30
2018-03-16T07:26:39.620Z,69.20
2018-03-16T07:29:07.210Z,69.20
2018-03-16T07:31:34.895Z,69.20
2018-03-16T07:34:02.473Z,69.20
2018-03-16T07:36:30.165Z,69.30
2018-03-16T07:38:57.796Z,69.20
2018-03-16T07:41:25.445Z,69.30
2018-03-16T07:43:53.043Z,69.20
2018-03-16T07:46:20.673Z,69.20
2018-03-16T07:48:48.328Z,69.20
2018-03-16T07:51:15.984Z,69.20
2018-03-16T07:53:43.646Z,69.20
2018-03-16T07:56:11.229Z,69.20
2018-03-16T07:58:38.868Z,69.20
2018-03-16T08:01:06.481Z,69.20
2018-03-16T08:03:34.090Z,69.20
2018-03-16T08:06:01.791Z,69.20
2018-03-16T08:08:29.420Z,69.20
2018-03-16T08:10:57.101Z,69.00
2018-03-16T08:13:25.148Z,69.00
2018-03-16T08:15:56.870Z,69.00
2018-03-16T08:18:24.428Z,69.00
2018-03-16T08:20:51.988Z,69.00
2018-03-16T08:23:19.553Z,69.00
2018-03-16T08:25:47.112Z,69.00
2018-03-16T08:28:14.675Z,69.00
2018-03-16T08:30:42.257Z,69.00
2018-03-16T08:33:09.828Z,69.00
2018-03-16T08:35:37.401Z,68.90
2018-03-16T08:38:04.982Z,69.00
2018-03-16T08:40:32.551Z,69.00
2018-03-16T08:43:00.111Z,69.00
2018-03-16T08:45:27.735Z,68.90
2018-03-16T08:47:55.294Z,68.90
2018-03-16T08:50:22.911Z,68.90
2018-03-16T08:52:50.480Z,68.90
2018-03-16T08:55:18.036Z,68.90
2018-03-16T08:57:45.594Z,68.90
2018-03-16T09:00:13.207Z,68.90
2018-03-16T09:02:40.844Z,68.80
2018-03-16T09:05:08.819Z,68.90
2018-03-16T09:07:36.477Z,68.90
2018-03-16T09:10:04.137Z,69.00
2018-03-16T09:12:31.726Z,68.90
2018-03-16T09:14:59.421Z,69.00
2018-03-16T09:17:26.969Z,68.80
2018-03-16T09:19:54.544Z,68.80
2018-03-16T09:22:22.140Z,68.80
2018-03-16T09:24:49.721Z,68.90
2018-03-16T09:27:17.368Z,68.90
2018-03-16T09:29:44.945Z,68.80
2018-03-16T09:32:12.512Z,68.90
2018-03-16T09:34:40.072Z,68.80
2018-03-16T09:37:07.631Z,68.70
2018-03-16T09:39:35.192Z,68.70
2018-03-16T09:42:02.764Z,68.70
2018-03-16T09:44:33.058Z,68.70
2018-03-16T09:47:00.622Z,68.80
2018-03-16T09:49:28.337Z,68.80
2018-03-16T09:51:55.911Z,68.70
2018-03-16T09:54:23.512Z,68.70
2018-03-16T09:56:51.142Z,68.70
2018-03-16T09:59:18.710Z,68.70
2018-03-16T10:01:46.383Z,68.70
2018-03-16T10:04:13.949Z,68.70
2018-03-16T10:06:41.501Z,68.70
2018-03-16T10:09:09.068Z,68.70
2018-03-16T10:11:36.717Z,68.70
2018-03-16T10:14:04.290Z,68.70
2018-03-16T10:16:31.953Z,68.70
2018-03-16T10:18:59.600Z,68.70
2018-03-16T10:21:27.173Z,68.60
2018-03-16T10:23:54.732Z,68.70
2018-03-16T10:26:22.292Z,68.70
2018-03-16T10:28:49.947Z,68.70
2018-03-16T10:31:17.596Z,68.60
2018-03-16T10:33:45.260Z,68.70
2018-03-16T10:36:12.824Z,68.60
2018-03-16T10:38:40.499Z,68.60
2018-03-16T10:41:08.053Z,68.60
2018-03-16T10:43:35.616Z,68.60
2018-03-16T10:46:03.270Z,68.60
2018-03-16T10:48:30.993Z,68.50
2018-03-16T10:50:58.552Z,68.60
2018-03-16T10:53:26.178Z,68.50
2018-03-16T10:55:53.826Z,68.60
2018-03-16T10:58:21.379Z,68.60
2018-03-16T11:00:58.782Z,68.60
2018-03-16T11:03:41.239Z,68.50
2018-03-16T11:06:08.833Z,68.50
2018-03-16T11:08:36.471Z,68.50
2018-03-16T11:11:04.049Z,68.50
2018-03-16T11:13:31.711Z,68.50
2018-03-16T11:15:59.385Z,68.50
2018-03-16T11:18:27.028Z,68.50
2018-03-16T11:20:54.602Z,68.50
2018-03-16T11:23:22.269Z,68.50
2018-03-16T11:25:49.829Z,68.50
2018-03-16T11:28:17.389Z,68.40
2018-03-16T11:30:45.044Z,68.40
2018-03-16T11:33:12.604Z,68.50
2018-03-16T11:35:40.190Z,68.50
2018-03-16T11:38:08.234Z,68.50
2018-03-16T11:40:35.813Z,68.40
2018-03-16T11:43:03.812Z,68.50
2018-03-16T11:45:32.769Z,68.40
2018-03-16T11:48:00.335Z,68.50
2018-03-16T11:50:28.345Z,68.50
2018-03-16T11:52:55.904Z,68.50
2018-03-16T11:55:23.473Z,68.50
2018-03-16T11:57:51.036Z,68.50
2018-03-16T12:00:18.724Z,68.40
2018-03-16T12:02:46.288Z,68.40
2018-03-16T12:05:14.313Z,68.40
2018-03-16T12:07:41.924Z,68.40
2018-03-16T12:10:09.881Z,68.40
2018-03-16T12:12:37.863Z,68.40
2018-03-16T12:15:05.574Z,68.40
2018-03-16T12:17:33.148Z,68.40
2018-03-16T12:20:00.708Z,68.30
2018-03-16T12:22:28.293Z,68.30
2018-03-16T12:24:55.872Z,68.30
2018-03-16T12:27:23.470Z,68.30
2018-03-16T12:29:51.082Z,68.30
2018-03-16T12:32:18.743Z,68.20
2018-03-16T12:34:46.306Z,68.20
2018-03-16T12:37:13.964Z,68.20
2018-03-16T12:39:41.545Z,68.20
2018-03-16T12:42:09.205Z,68.20
2018-03-16T12:44:36.841Z,68.20
2018-03-16T12:47:04.401Z,68.20
2018-03-16T12:49:32.127Z,68.20
2018-03-16T12:51:59.757Z,68.20
2018-03-16T12:54:27.413Z,68.20
2018-03-16T12:56:55.100Z,68.20
2018-03-16T12:59:22.668Z,68.10
2018-03-16T13:01:50.225Z,68.10
2018-03-16T13:04:17.896Z,68.00
2018-03-16T13:06:45.500Z,68.10
2018-03-16T13:09:13.052Z,68.00
2018-03-16T13:11:40.613Z,68.00
2018-03-16T13:14:08.178Z,68.00
2018-03-16T13:16:35.732Z,68.00
2018-03-16T13:19:03.348Z,68.00
2018-03-16T13:21:30.961Z,68.00
2018-03-16T13:23:58.585Z,68.00
2018-03-16T13:26:26.167Z,68.00
2018-03-16T13:28:53.830Z,68.00
2018-03-16T13:31:21.500Z,68.00
2018-03-16T13:33:50.186Z,68.00
2018-03-16T13:36:17.757Z,67.90
2018-03-16T13:38:56.582Z,67.90
2018-03-16T13:41:24.152Z,67.90
2018-03-16T13:43:51.705Z,67.90
2018-03-16T13:46:19.288Z,67.90
2018-03-16T13:48:46.844Z,67.90
2018-03-16T13:51:15.257Z,67.90
2018-03-16T13:53:42.846Z,67.70
2018-03-16T13:56:10.470Z,67.90
2018-03-16T13:58:38.478Z,67.90
2018-03-16T14:01:06.049Z,67.90
2018-03-16T14:03:33.648Z,67.90
2018-03-16T14:06:01.215Z,67.70
2018-03-16T14:08:29.228Z,67.60
2018-03-16T14:10:56.787Z,67.60
2018-03-16T14:13:24.456Z,67.60
2018-03-16T14:15:57.104Z,67.60
2018-03-16T14:18:24.707Z,67.60
2018-03-16T14:20:52.358Z,67.60
2018-03-16T14:23:20.025Z,67.50
2018-03-16T14:25:47.606Z,67.50
2018-03-16T14:28:15.638Z,67.40
2018-03-16T14:30:43.193Z,67.40
2018-03-16T14:33:10.815Z,67.40
2018-03-16T14:35:38.463Z,67.40
2018-03-16T14:38:06.521Z,67.40
2018-03-16T14:40:34.339Z,67.40
2018-03-16T14:43:02.045Z,67.30
2018-03-16T14:45:29.647Z,67.20
2018-03-16T14:47:57.207Z,67.20
2018-03-16T14:50:24.770Z,67.20
2018-03-16T14:52:52.372Z,67.30
2018-03-16T14:55:19.945Z,67.30
2018-03-16T14:57:47.997Z,67.30
2018-03-16T15:00:15.568Z,67.30
2018-03-16T15:02:43.160Z,67.20
2018-03-16T15:05:10.811Z,67.20
2018-03-16T15:07:38.793Z,67.20
2018-03-16T15:10:06.513Z,67.20
2018-03-16T15:12:34.072Z,67.10
2018-03-16T15:15:01.658Z,67.10
2018-03-16T15:17:29.695Z,67.10
2018-03-16T15:19:57.325Z,67.10
2018-03-16T15:22:25.033Z,67.00
2018-03-16T15:24:53.111Z,67.00
2018-03-16T15:27:21.135Z,67.00
2018-03-16T15:29:48.700Z,67.00
2018-03-16T15:32:16.233Z,66.90
2018-03-16T15:34:43.855Z,66.80
2018-03-16T15:37:11.358Z,66.90
2018-03-16T15:39:38.871Z,66.90
2018-03-16T15:42:06.819Z,66.90
2018-03-16T15:44:34.446Z,66.90
2018-03-16T15:47:02.623Z,66.90
2018-03-16T15:49:30.140Z,67.00
2018-03-16T15:51:57.759Z,66.90
2018-03-16T15:54:25.267Z,66.90
2018-03-16T15:56:53.967Z,66.90
2018-03-16T15:59:21.538Z,66.80
2018-03-16T16:01:49.059Z,66.80
2018-03-16T16:04:16.791Z,66.70
2018-03-16T16:06:44.336Z,66.70
2018-03-16T16:09:11.838Z,66.80
2018-03-16T16:11:39.751Z,66.70
2018-03-16T16:14:07.305Z,66.70
2018-03-16T16:16:34.820Z,66.80
2018-03-16T16:19:02.383Z,66.70
2018-03-16T16:21:29.903Z,66.60
2018-03-16T16:23:57.421Z,66.40
2018-03-16T16:26:25.019Z,66.40
2018-03-16T16:28:52.523Z,66.60
2018-03-16T16:31:20.054Z,66.40
2018-03-16T16:33:47.574Z,66.30
2018-03-16T16:36:15.151Z,66.40
2018-03-16T16:38:42.715Z,66.20
2018-03-16T16:41:10.224Z,66.20
2018-03-16T16:43:37.844Z,66.20
2018-03-16T16:46:05.751Z,66.20
2018-03-16T16:48:38.996Z,66.20
2018-03-16T16:51:06.515Z,66.10
2018-03-16T16:53:34.043Z,66.00
2018-03-16T16:56:01.680Z,66.10
2018-03-16T16:58:29.597Z,66.10
2018-03-16T17:00:57.210Z,66.10
2018-03-16T17:03:25.140Z,65.90
2018-03-16T17:05:53.013Z,65.90
2018-03-16T17:08:20.546Z,65.80
2018-03-16T17:10:48.080Z,66.00
2018-03-16T17:13:15.605Z,65.90
2018-03-16T17:15:43.161Z,65.90
2018-03-16T17:18:11.099Z,65.80
2018-03-16T17:20:38.707Z,65.80
2018-03-16T17:23:06.614Z,65.70
2018-03-16T17:25:34.143Z,65.70
2018-03-16T17:28:01.671Z,65.70
2018-03-16T17:30:29.182Z,65.60
2018-03-16T17:32:56.692Z,65.80
2018-03-16T17:35:24.259Z,65.50
2018-03-16T17:37:51.773Z,65.70
2018-03-16T17:40:19.283Z,65.30
2018-03-16T17:42:46.935Z,65.50
2018-03-16T17:45:14.494Z,65.50
2018-03-16T17:47:42.403Z,65.30
2018-03-16T17:50:09.920Z,65.30
2018-03-16T17:52:37.847Z,65.50
2018-03-16T17:55:05.359Z,65.30
2018-03-16T17:57:32.869Z,65.30
2018-03-16T18:00:03.037Z,65.30
2018-03-16T18:02:30.562Z,65.00
2018-03-16T18:04:58.471Z,65.10
2018-03-16T18:07:25.970Z,65.00
2018-03-16T18:09:53.498Z,64.90
2018-03-16T18:12:21.144Z,65.10
2018-03-16T18:14:48.686Z,65.00
2018-03-16T18:17:16.239Z,65.00
2018-03-16T18:19:43.798Z,64.90
2018-03-16T18:22:11.307Z,64.90
2018-03-16T18:24:38.834Z,64.80
2018-03-16T18:27:06.343Z,64.80
2018-03-16T18:29:33.884Z,64.80
2018-03-16T18:32:01.404Z,64.60
2018-03-16T18:34:28.907Z,64.60
2018-03-16T18:36:56.460Z,64.70
2018-03-16T18:39:23.977Z,64.60
2018-03-16T18:41:51.487Z,64.60
2018-03-16T18:44:19.007Z,64.40
2018-03-16T18:46:46.570Z,64.40
2018-03-16T18:49:14.085Z,64.50
2018-03-16T18:51:42.098Z,64.40
2018-03-16T18:54:09.667Z,64.40
2018-03-16T18:56:37.166Z,64.50
2018-03-16T18:59:04.670Z,64.20
2018-03-16T19:01:32.183Z,64.20
2018-03-16T19:04:02.967Z,64.00
2018-03-16T19:06:30.597Z,63.90
2018-03-16T19:08:58.164Z,63.80
2018-03-16T19:11:25.730Z,63.80
2018-03-16T19:13:53.251Z,64.00
2018-03-16T19:16:20.760Z,63.80
2018-03-16T19:18:48.314Z,63.90
2018-03-16T19:21:15.827Z,63.70
2018-03-16T19:23:43.447Z,63.70
2018-03-16T19:26:11.098Z,63.60
2018-03-16T19:28:38.602Z,63.60
2018-03-16T19:31:06.207Z,63.70
2018-03-16T19:33:33.823Z,63.40
2018-03-16T19:36:01.435Z,63.50
2018-03-16T19:38:28.944Z,63.50
2018-03-16T19:40:56.448Z,63.40
2018-03-16T19:43:24.021Z,63.30
2018-03-16T19:45:51.560Z,63.50
2018-03-16T19:48:19.066Z,63.30
2018-03-16T19:50:46.575Z,63.10
2018-03-16T19:53:14.082Z,63.10
2018-03-16T19:55:41.601Z,62.90
2018-03-16T19:58:09.165Z,62.90
2018-03-16T20:00:36.739Z,63.10
2018-03-16T20:03:04.270Z,63.10
2018-03-16T20:05:31.806Z,63.10
2018-03-16T20:07:59.326Z,62.80
2018-03-16T20:10:26.967Z,62.90
2018-03-16T20:12:54.522Z,62.80
2018-03-16T20:15:22.201Z,62.60
2018-03-16T20:17:50.265Z,62.60
2018-03-16T20:20:17.819Z,62.60
2018-03-16T20:22:45.338Z,62.60
2018-03-16T20:25:12.855Z,62.60
2018-03-16T20:27:40.757Z,62.40
2018-03-16T20:30:08.284Z,62.40
2018-03-16T20:32:35.814Z,62.60
2018-03-16T20:35:08.975Z,62.30
2018-03-16T20:37:36.502Z,62.30
2018-03-16T20:40:04.055Z,62.40
2018-03-16T20:42:31.765Z,62.50
2018-03-16T20:44:59.267Z,62.20
2018-03-16T20:47:27.208Z,62.30
2018-03-16T20:49:54.722Z,62.30
2018-03-16T20:52:22.236Z,62.40
2018-03-16T20:54:49.802Z,62.30
2018-03-16T20:57:17.770Z,62.30
2018-03-16T20:59:45.419Z,62.20
2018-03-16T21:02:13.399Z,62.20
2018-03-16T21:04:40.911Z,62.20
2018-03-16T21:07:08.547Z,62.10
2018-03-16T21:09:36.186Z,61.90
2018-03-16T21:12:03.727Z,61.90
2018-03-16T21:14:31.408Z,61.90
2018-03-16T21:16:59.093Z,61.90
2018-03-16T21:19:26.754Z,61.90
2018-03-16T21:21:54.265Z,61.90
2018-03-16T21:24:21.823Z,61.90
2018-03-16T21:26:49.737Z,61.60
2018-03-16T21:29:17.276Z,61.60
2018-03-16T21:31:44.931Z,61.90
2018-03-16T21:34:15.264Z,61.60
2018-03-16T21:36:42.763Z,61.60
2018-03-16T21:39:10.365Z,61.70
2018-03-16T21:41:37.946Z,61.30
2018-03-16T21:44:05.460Z,61.50
2018-03-16T21:46:32.974Z,61.40
2018-03-16T21:49:00.490Z,61.40
2018-03-16T21:51:28.639Z,61.30
2018-03-16T21:53:56.223Z,61.30
2018-03-16T21:56:24.194Z,61.30
2018-03-16T21:58:51.761Z,61.30
2018-03-16T22:01:19.330Z,61.10
2018-03-16T22:03:46.852Z,60.90
2018-03-16T22:06:14.998Z,60.80
2018-03-16T22:08:42.407Z,60.80
2018-03-16T22:11:09.988Z,60.80
2018-03-16T22:13:37.504Z,61.00
2018-03-16T22:16:05.429Z,61.00
2018-03-16T22:18:32.944Z,61.00
2018-03-16T22:21:00.459Z,60.90
2018-03-16T22:23:27.977Z,60.90
2018-03-16T22:25:55.538Z,61.00
2018-03-16T22:28:23.096Z,60.80
2018-03-16T22:30:50.640Z,60.80
2018-03-16T22:33:18.206Z,60.80
2018-03-16T22:35:45.714Z,60.60
2018-03-16T22:38:13.229Z,60.60
2018-03-16T22:40:40.730Z,60.80
2018-03-16T22:43:08.240Z,60.60
2018-03-16T22:45:44.819Z,60.80
2018-03-16T22:48:12.361Z,60.60
2018-03-16T22:50:39.871Z,60.50
2018-03-16T22:53:07.394Z,60.70
2018-03-16T22:55:34.913Z,60.60
2018-03-16T22:58:02.434Z,60.50
2018-03-16T23:00:29.962Z,60.40
2018-03-16T23:02:57.538Z,60.60
2018-03-16T23:05:25.047Z,60.40
2018-03-16T23:07:52.566Z,60.40
2018-03-16T23:10:20.202Z,60.40
2018-03-16T23:12:51.312Z,60.30
2018-03-16T23:15:18.823Z,60.20
2018-03-16T23:17:46.370Z,60.30
2018-03-16T23:20:13.919Z,60.30
2018-03-16T23:22:41.427Z,60.40
2018-03-16T23:25:09.442Z,60.30
2018-03-16T23:27:37.001Z,60.30
2018-03-16T23:30:04.595Z,60.10
2018-03-16T23:32:32.097Z,60.00
2018-03-16T23:34:59.622Z,60.20
2018-03-16T23:37:27.163Z,59.80
2018-03-16T23:39:54.689Z,60.10
2018-03-16T23:42:22.263Z,60.10
2018-03-16T23:44:49.799Z,60.10
2018-03-16T23:47:17.330Z,59.90
2018-03-16T23:49:44.954Z,59.70
2018-03-16T23:52:12.510Z,59.60
2018-03-16T23:54:40.075Z,59.80
2018-03-16T23:57:07.636Z,59.80
2018-03-16T23:59:35.156Z,59.70
